Terminal Aerodrome Forecast
Issued by NWS

Home | Current Version | Previous Version | Text Only | Print | Product List | Glossary On
Versions: 1 2 3 4 5 6 7 8 9 10 11 12 13 14 15 16 17 18 19 20 21 22 23 24 25 26 27
000
FTUS46 KOTX 221738
TAFMWH
TAF
KMWH 221738Z 2218/2318 01004KT P6SM -SHRA SCT060 OVC080
     FM222000 13003KT P6SM VCSH SCT050 OVC080
     FM230000 13004KT P6SM -SHRA VCTS FEW060CB BKN090
     FM230500 36005KT P6SM SCT080 BKN100
     FM231300 30005KT P6SM -SHRA SCT070 OVC100=

USA.gov is the U.S. government's official web portal to all federal, state and local government web resources and services.